BAW505 LPPT-EGLL
Flight info
| Callsign | BAW505 |
|---|---|
| Flight time | N/A |
| Altitude | 36000 |
| Route | IXIDA1N IXIDA DCT RIVRO DCT TOSDI DCT ZMR DCT NUBLO DCT RONSI DCT DELOG DCT DEGEX DCT OZNOH DCT JSY DCT REVTU/N0426F340 UP87 ROXOG ROXOG1H |
| Aircraft | A21N/M-SDE2E3FGHIRWXY/LB1 |
Departure
| Time | N/A |
|---|---|
| Airport | Lisbon Humberto Delgado Airport (LPPT) |
Arrival
| Time | 2026-05-06 17:55 |
|---|---|
| Airport | London Heathrow Airport (EGLL) |
| Time | Latitude | Longitude | Altitude | Speed | Heading |
|---|---|---|---|---|---|
| 2026-05-06 15:57 | 39.68307 | -8.03787 | 23905 ft | 413 kts | 44° |
| 2026-05-06 15:57 | 39.70336 | -8.01145 | 23954 ft | 413 kts | 44° |
| 2026-05-06 15:57 | 39.72373 | -7.98490 | 24356 ft | 416 kts | 44° |
| 2026-05-06 15:58 | 39.74423 | -7.95826 | 24860 ft | 419 kts | 44° |
| 2026-05-06 15:58 | 39.76490 | -7.93138 | 25364 ft | 422 kts | 44° |
| 2026-05-06 15:58 | 39.78571 | -7.90426 | 25812 ft | 425 kts | 44° |
| 2026-05-06 15:58 | 39.80666 | -7.87695 | 26256 ft | 428 kts | 44° |
| 2026-05-06 15:59 | 39.82772 | -7.84935 | 26703 ft | 431 kts | 44° |
| 2026-05-06 15:59 | 39.84892 | -7.82150 | 27130 ft | 435 kts | 44° |
| 2026-05-06 15:59 | 39.87025 | -7.79348 | 27546 ft | 438 kts | 44° |
| 2026-05-06 15:59 | 39.89176 | -7.76524 | 27957 ft | 441 kts | 44° |
| 2026-05-06 16:00 | 39.91341 | -7.73683 | 28357 ft | 444 kts | 44° |
| 2026-05-06 16:00 | 39.93522 | -7.70817 | 28747 ft | 447 kts | 44° |
| 2026-05-06 16:00 | 39.95716 | -7.67931 | 29136 ft | 450 kts | 44° |
| 2026-05-06 16:00 | 39.97928 | -7.65035 | 29512 ft | 452 kts | 44° |
| 2026-05-06 16:01 | 40.00146 | -7.62097 | 29886 ft | 455 kts | 45° |
| 2026-05-06 16:01 | 40.02374 | -7.59156 | 30233 ft | 457 kts | 44° |
| 2026-05-06 16:01 | 40.04617 | -7.56193 | 30575 ft | 459 kts | 44° |
| 2026-05-06 16:01 | 40.06868 | -7.53227 | 30894 ft | 461 kts | 44° |
| 2026-05-06 16:02 | 40.09134 | -7.50239 | 31201 ft | 464 kts | 44° |
| 2026-05-06 16:02 | 40.11413 | -7.47243 | 31487 ft | 467 kts | 43° |
| 2026-05-06 16:02 | 40.13706 | -7.44230 | 31777 ft | 469 kts | 44° |
| 2026-05-06 16:02 | 40.16004 | -7.41191 | 32129 ft | 470 kts | 43° |
| 2026-05-06 16:03 | 40.18300 | -7.38151 | 32494 ft | 470 kts | 43° |
| 2026-05-06 16:03 | 40.20588 | -7.35105 | 32857 ft | 470 kts | 43° |
| 2026-05-06 16:03 | 40.22876 | -7.32060 | 33223 ft | 469 kts | 43° |
| 2026-05-06 16:03 | 40.25162 | -7.29012 | 33579 ft | 469 kts | 43° |
| 2026-05-06 16:04 | 40.27450 | -7.25977 | 33920 ft | 468 kts | 43° |
| 2026-05-06 16:04 | 40.29733 | -7.22930 | 34215 ft | 468 kts | 43° |
| 2026-05-06 16:04 | 40.32017 | -7.19886 | 34502 ft | 467 kts | 43° |
| 2026-05-06 16:04 | 40.34289 | -7.16854 | 34792 ft | 467 kts | 43° |
| 2026-05-06 16:05 | 40.36561 | -7.13812 | 35055 ft | 466 kts | 43° |
| 2026-05-06 16:05 | 40.38827 | -7.10778 | 35297 ft | 466 kts | 43° |
| 2026-05-06 16:05 | 40.41091 | -7.07738 | 35533 ft | 466 kts | 43° |
| 2026-05-06 16:05 | 40.43352 | -7.04695 | 35758 ft | 466 kts | 43° |
| 2026-05-06 16:06 | 40.45611 | -7.01648 | 35920 ft | 465 kts | 43° |
| 2026-05-06 16:06 | 40.47868 | -6.98611 | 35932 ft | 464 kts | 43° |
| 2026-05-06 16:06 | 40.52355 | -6.92512 | 35903 ft | 464 kts | 43° |
| 2026-05-06 16:07 | 40.56851 | -6.86425 | 35891 ft | 464 kts | 43° |
| 2026-05-06 16:07 | 40.61321 | -6.80387 | 35891 ft | 464 kts | 43° |
| 2026-05-06 16:08 | 40.65844 | -6.74255 | 35893 ft | 463 kts | 44° |
| 2026-05-06 16:08 | 40.70303 | -6.68201 | 35895 ft | 463 kts | 43° |
| 2026-05-06 16:09 | 40.74794 | -6.62114 | 35893 ft | 463 kts | 44° |
| 2026-05-06 16:09 | 40.79268 | -6.56003 | 35891 ft | 463 kts | 44° |
| 2026-05-06 16:10 | 40.83736 | -6.49885 | 35893 ft | 463 kts | 44° |
| 2026-05-06 16:10 | 40.88204 | -6.43749 | 35898 ft | 463 kts | 44° |
| 2026-05-06 16:11 | 40.92670 | -6.37613 | 35908 ft | 463 kts | 44° |
| 2026-05-06 16:11 | 40.97132 | -6.31478 | 35908 ft | 463 kts | 44° |
| 2026-05-06 16:12 | 41.01761 | -6.25583 | 35904 ft | 461 kts | 40° |
| 2026-05-06 16:12 | 41.06531 | -6.19907 | 35912 ft | 461 kts | 39° |
| 2026-05-06 16:13 | 41.11304 | -6.14218 | 35908 ft | 461 kts | 40° |
| 2026-05-06 16:13 | 41.16071 | -6.08518 | 35905 ft | 461 kts | 40° |
| 2026-05-06 16:14 | 41.20831 | -6.02816 | 35925 ft | 461 kts | 40° |
| 2026-05-06 16:14 | 41.25554 | -5.97149 | 35923 ft | 460 kts | 40° |
| 2026-05-06 16:15 | 41.30297 | -5.91428 | 35918 ft | 460 kts | 40° |
| 2026-05-06 16:15 | 41.35041 | -5.85696 | 35916 ft | 460 kts | 40° |
| 2026-05-06 16:16 | 41.39782 | -5.79964 | 35924 ft | 461 kts | 40° |
| 2026-05-06 16:16 | 41.44528 | -5.74228 | 35931 ft | 460 kts | 40° |
| 2026-05-06 16:17 | 41.49259 | -5.68492 | 35928 ft | 460 kts | 40° |
| 2026-05-06 16:17 | 41.54285 | -5.63314 | 35932 ft | 455 kts | 25° |
| 2026-05-06 16:18 | 41.60056 | -5.59940 | 35937 ft | 452 kts | 19° |
| 2026-05-06 16:18 | 41.65871 | -5.56703 | 35944 ft | 452 kts | 20° |
| 2026-05-06 16:19 | 41.71646 | -5.53435 | 35934 ft | 451 kts | 20° |
| 2026-05-06 16:19 | 41.77425 | -5.50163 | 35930 ft | 451 kts | 20° |
| 2026-05-06 16:20 | 41.83207 | -5.46900 | 35936 ft | 451 kts | 19° |
| 2026-05-06 16:20 | 41.88983 | -5.43642 | 35938 ft | 450 kts | 20° |
| 2026-05-06 16:21 | 41.94738 | -5.40344 | 35939 ft | 450 kts | 20° |
| 2026-05-06 16:21 | 42.00500 | -5.37076 | 35938 ft | 450 kts | 20° |
| 2026-05-06 16:22 | 42.06258 | -5.33793 | 35936 ft | 450 kts | 20° |
| 2026-05-06 16:22 | 42.12011 | -5.30502 | 35944 ft | 449 kts | 20° |
| 2026-05-06 16:23 | 42.17760 | -5.27190 | 35940 ft | 449 kts | 20° |
| 2026-05-06 16:23 | 42.23504 | -5.23887 | 35939 ft | 449 kts | 20° |
| 2026-05-06 16:24 | 42.29250 | -5.20568 | 35946 ft | 449 kts | 20° |
| 2026-05-06 16:24 | 42.34997 | -5.17271 | 35939 ft | 448 kts | 20° |
| 2026-05-06 16:25 | 42.40694 | -5.13977 | 35941 ft | 448 kts | 20° |
| 2026-05-06 16:25 | 42.46428 | -5.10655 | 35941 ft | 448 kts | 20° |
| 2026-05-06 16:26 | 42.52203 | -5.07302 | 35954 ft | 448 kts | 20° |
| 2026-05-06 16:26 | 42.57883 | -5.03994 | 35947 ft | 447 kts | 20° |
| 2026-05-06 16:27 | 42.63604 | -5.00663 | 35954 ft | 447 kts | 20° |
| 2026-05-06 16:27 | 42.69320 | -4.97323 | 35957 ft | 447 kts | 20° |
| 2026-05-06 16:28 | 42.75036 | -4.93976 | 35956 ft | 447 kts | 20° |
| 2026-05-06 16:28 | 42.80753 | -4.90623 | 35968 ft | 447 kts | 20° |
| 2026-05-06 16:29 | 42.86473 | -4.87257 | 35974 ft | 447 kts | 20° |
| 2026-05-06 16:29 | 42.92186 | -4.83896 | 35991 ft | 448 kts | 20° |
| 2026-05-06 16:30 | 42.96936 | -4.81092 | 35988 ft | 447 kts | 20° |
| 2026-05-06 16:30 | 43.03604 | -4.77149 | 35998 ft | 447 kts | 20° |
| 2026-05-06 16:31 | 43.09304 | -4.73764 | 36004 ft | 447 kts | 20° |
| 2026-05-06 16:31 | 43.15005 | -4.70379 | 36018 ft | 446 kts | 20° |
| 2026-05-06 16:32 | 43.20694 | -4.66997 | 36014 ft | 445 kts | 21° |
| 2026-05-06 16:32 | 43.26367 | -4.63612 | 36023 ft | 445 kts | 21° |
| 2026-05-06 16:33 | 43.32038 | -4.60226 | 36016 ft | 445 kts | 21° |
| 2026-05-06 16:34 | 43.39584 | -4.55701 | 36028 ft | 444 kts | 21° |
| 2026-05-06 16:34 | 43.46165 | -4.51750 | 36024 ft | 444 kts | 21° |
| 2026-05-06 16:35 | 43.51820 | -4.48328 | 36017 ft | 444 kts | 21° |
| 2026-05-06 16:35 | 43.57505 | -4.44869 | 36025 ft | 442 kts | 20° |
| 2026-05-06 16:36 | 43.62194 | -4.42061 | 36017 ft | 442 kts | 21° |
| 2026-05-06 16:36 | 43.67833 | -4.38664 | 36016 ft | 442 kts | 21° |
| 2026-05-06 16:37 | 43.73466 | -4.35252 | 36018 ft | 442 kts | 21° |
| 2026-05-06 16:37 | 43.79049 | -4.31830 | 36015 ft | 441 kts | 21° |
| 2026-05-06 16:38 | 43.84656 | -4.28397 | 36011 ft | 441 kts | 21° |
| 2026-05-06 16:38 | 43.90277 | -4.24988 | 36009 ft | 441 kts | 21° |
| 2026-05-06 16:39 | 43.95885 | -4.21551 | 36018 ft | 441 kts | 21° |
| 2026-05-06 16:39 | 44.01485 | -4.18111 | 36009 ft | 439 kts | 21° |
| 2026-05-06 16:40 | 44.07076 | -4.14680 | 36000 ft | 440 kts | 21° |
| 2026-05-06 16:40 | 44.12664 | -4.11220 | 36006 ft | 439 kts | 21° |
| 2026-05-06 16:41 | 44.18257 | -4.07801 | 36013 ft | 438 kts | 21° |
| 2026-05-06 16:41 | 44.23823 | -4.04360 | 36003 ft | 438 kts | 22° |
| 2026-05-06 16:42 | 44.29387 | -4.00915 | 36004 ft | 438 kts | 21° |
| 2026-05-06 16:42 | 44.35120 | -3.98217 | 36002 ft | 434 kts | 8° |
| 2026-05-06 16:43 | 44.41069 | -3.96866 | 36006 ft | 433 kts | 7° |
| 2026-05-06 16:43 | 44.47010 | -3.95532 | 36007 ft | 433 kts | 7° |
| 2026-05-06 16:44 | 44.52956 | -3.94174 | 36006 ft | 433 kts | 7° |
| 2026-05-06 16:44 | 44.58885 | -3.92809 | 36007 ft | 431 kts | 7° |
| 2026-05-06 16:45 | 44.64807 | -3.91434 | 36002 ft | 431 kts | 7° |
| 2026-05-06 16:45 | 44.70729 | -3.90059 | 36009 ft | 431 kts | 7° |
| 2026-05-06 16:46 | 44.76652 | -3.88689 | 36011 ft | 431 kts | 7° |
| 2026-05-06 16:46 | 44.82574 | -3.87318 | 36011 ft | 431 kts | 7° |
| 2026-05-06 16:47 | 44.88451 | -3.85938 | 36009 ft | 431 kts | 7° |
| 2026-05-06 16:47 | 44.94416 | -3.84550 | 36014 ft | 431 kts | 7° |
| 2026-05-06 16:48 | 45.00295 | -3.83177 | 36013 ft | 431 kts | 7° |
| 2026-05-06 16:48 | 45.06204 | -3.81789 | 36010 ft | 430 kts | 7° |
| 2026-05-06 16:49 | 45.12107 | -3.80405 | 36007 ft | 430 kts | 7° |
| 2026-05-06 16:49 | 45.18008 | -3.79018 | 36007 ft | 430 kts | 7° |
| 2026-05-06 16:50 | 45.23903 | -3.77625 | 36006 ft | 429 kts | 7° |
| 2026-05-06 16:50 | 45.29797 | -3.76234 | 36004 ft | 429 kts | 7° |
| 2026-05-06 16:51 | 45.35695 | -3.74836 | 36004 ft | 430 kts | 7° |
| 2026-05-06 16:51 | 45.41594 | -3.73447 | 35995 ft | 430 kts | 7° |
| 2026-05-06 16:52 | 45.47487 | -3.72048 | 35987 ft | 430 kts | 7° |
| 2026-05-06 16:52 | 45.53385 | -3.70646 | 36005 ft | 430 kts | 7° |
| 2026-05-06 16:53 | 45.59279 | -3.69238 | 35997 ft | 430 kts | 7° |
| 2026-05-06 16:53 | 45.65173 | -3.67816 | 35992 ft | 429 kts | 7° |
| 2026-05-06 16:54 | 45.71067 | -3.66404 | 36004 ft | 429 kts | 7° |
| 2026-05-06 16:54 | 45.76968 | -3.64986 | 35993 ft | 430 kts | 7° |
| 2026-05-06 16:55 | 45.82877 | -3.63564 | 36003 ft | 431 kts | 7° |
| 2026-05-06 16:55 | 45.88786 | -3.62141 | 35998 ft | 431 kts | 7° |
| 2026-05-06 16:56 | 45.94703 | -3.60705 | 36005 ft | 432 kts | 7° |
| 2026-05-06 16:56 | 46.00626 | -3.59267 | 35996 ft | 432 kts | 7° |
| 2026-05-06 16:57 | 46.06555 | -3.57826 | 35993 ft | 432 kts | 7° |
| 2026-05-06 16:57 | 46.12465 | -3.56389 | 35996 ft | 429 kts | 8° |
| 2026-05-06 16:58 | 46.18359 | -3.54949 | 35993 ft | 430 kts | 8° |
| 2026-05-06 16:58 | 46.24256 | -3.53507 | 35994 ft | 430 kts | 8° |
| 2026-05-06 16:59 | 46.30152 | -3.52056 | 35991 ft | 430 kts | 8° |
| 2026-05-06 16:59 | 46.36018 | -3.50614 | 35989 ft | 431 kts | 8° |
| 2026-05-06 17:00 | 46.41928 | -3.49164 | 35989 ft | 432 kts | 7° |
| 2026-05-06 17:00 | 46.47851 | -3.47701 | 35994 ft | 431 kts | 8° |
| 2026-05-06 17:01 | 46.53766 | -3.46236 | 35993 ft | 432 kts | 8° |
| 2026-05-06 17:01 | 46.59697 | -3.44767 | 35988 ft | 433 kts | 8° |
| 2026-05-06 17:02 | 46.65628 | -3.43296 | 35990 ft | 433 kts | 8° |
| 2026-05-06 17:02 | 46.71566 | -3.41821 | 35984 ft | 433 kts | 8° |
| 2026-05-06 17:03 | 46.77502 | -3.40336 | 35980 ft | 433 kts | 8° |
| 2026-05-06 17:03 | 46.83440 | -3.38853 | 35981 ft | 433 kts | 8° |
| 2026-05-06 17:04 | 46.89376 | -3.37359 | 35981 ft | 433 kts | 8° |
| 2026-05-06 17:04 | 46.95314 | -3.35869 | 35981 ft | 433 kts | 8° |
| 2026-05-06 17:05 | 47.01257 | -3.34378 | 35976 ft | 433 kts | 8° |
| 2026-05-06 17:05 | 47.07200 | -3.32881 | 35977 ft | 433 kts | 8° |
| 2026-05-06 17:06 | 47.13012 | -3.30528 | 35980 ft | 434 kts | 18° |
| 2026-05-06 17:06 | 47.18639 | -3.27454 | 35974 ft | 434 kts | 18° |
| 2026-05-06 17:07 | 47.24311 | -3.24409 | 35971 ft | 434 kts | 18° |
| 2026-05-06 17:07 | 47.29990 | -3.21388 | 35967 ft | 434 kts | 18° |
| 2026-05-06 17:08 | 47.35667 | -3.18361 | 35971 ft | 434 kts | 18° |
| 2026-05-06 17:08 | 47.41344 | -3.15326 | 35965 ft | 434 kts | 18° |
| 2026-05-06 17:09 | 47.47023 | -3.12283 | 35965 ft | 434 kts | 18° |
| 2026-05-06 17:09 | 47.52704 | -3.09234 | 35962 ft | 434 kts | 18° |
| 2026-05-06 17:10 | 47.58388 | -3.06172 | 35960 ft | 435 kts | 18° |
| 2026-05-06 17:10 | 47.64149 | -3.03051 | 35968 ft | 446 kts | 18° |
| 2026-05-06 17:11 | 47.69984 | -2.99857 | 35963 ft | 447 kts | 18° |
| 2026-05-06 17:11 | 47.75825 | -2.96676 | 35963 ft | 447 kts | 18° |
| 2026-05-06 17:12 | 47.81632 | -2.93547 | 35961 ft | 447 kts | 18° |
| 2026-05-06 17:12 | 47.87474 | -2.90379 | 35959 ft | 447 kts | 19° |
| 2026-05-06 17:13 | 47.93314 | -2.87162 | 35956 ft | 447 kts | 18° |
| 2026-05-06 17:13 | 47.99153 | -2.83972 | 35957 ft | 447 kts | 18° |
| 2026-05-06 17:14 | 48.04995 | -2.80788 | 35961 ft | 447 kts | 19° |
| 2026-05-06 17:14 | 48.10824 | -2.77555 | 35962 ft | 447 kts | 18° |
| 2026-05-06 17:15 | 48.16665 | -2.74344 | 35964 ft | 447 kts | 18° |
| 2026-05-06 17:15 | 48.22492 | -2.71106 | 35964 ft | 447 kts | 18° |
| 2026-05-06 17:16 | 48.28331 | -2.67881 | 35963 ft | 447 kts | 18° |
| 2026-05-06 17:16 | 48.34162 | -2.64645 | 35954 ft | 447 kts | 18° |
| 2026-05-06 17:17 | 48.40003 | -2.61419 | 35955 ft | 447 kts | 19° |
| 2026-05-06 17:17 | 48.45830 | -2.58120 | 35953 ft | 447 kts | 19° |
| 2026-05-06 17:18 | 48.51666 | -2.54862 | 35963 ft | 447 kts | 19° |
| 2026-05-06 17:18 | 48.57503 | -2.51634 | 35958 ft | 447 kts | 18° |
| 2026-05-06 17:19 | 48.63344 | -2.48385 | 35968 ft | 447 kts | 19° |
| 2026-05-06 17:19 | 48.66258 | -2.46748 | 35839 ft | 447 kts | 19° |
| 2026-05-06 17:19 | 48.69168 | -2.45109 | 35627 ft | 446 kts | 19° |
| 2026-05-06 17:19 | 48.72078 | -2.43463 | 35390 ft | 446 kts | 19° |
| 2026-05-06 17:20 | 48.74984 | -2.41823 | 35147 ft | 445 kts | 19° |
| 2026-05-06 17:20 | 48.77885 | -2.40185 | 34901 ft | 445 kts | 19° |
| 2026-05-06 17:20 | 48.80782 | -2.38544 | 34658 ft | 444 kts | 19° |
| 2026-05-06 17:20 | 48.83676 | -2.36899 | 34425 ft | 444 kts | 19° |
| 2026-05-06 17:21 | 48.85591 | -2.35807 | 34266 ft | 444 kts | 19° |
| 2026-05-06 17:21 | 48.88482 | -2.34164 | 34035 ft | 443 kts | 19° |
| 2026-05-06 17:21 | 48.91372 | -2.32521 | 33954 ft | 444 kts | 19° |
| 2026-05-06 17:22 | 48.97160 | -2.29225 | 33968 ft | 444 kts | 19° |
| 2026-05-06 17:22 | 49.03884 | -2.25383 | 33989 ft | 444 kts | 19° |
| 2026-05-06 17:23 | 49.08734 | -2.22605 | 33992 ft | 445 kts | 19° |
| 2026-05-06 17:23 | 49.14523 | -2.19276 | 33998 ft | 445 kts | 19° |
| 2026-05-06 17:24 | 49.20309 | -2.15937 | 33994 ft | 444 kts | 19° |
| 2026-05-06 17:24 | 49.26092 | -2.12601 | 33987 ft | 444 kts | 19° |
| 2026-05-06 17:25 | 49.31874 | -2.09259 | 33990 ft | 444 kts | 19° |
| 2026-05-06 17:25 | 49.37662 | -2.05903 | 33989 ft | 444 kts | 19° |
| 2026-05-06 17:26 | 49.43439 | -2.02541 | 33987 ft | 444 kts | 19° |
| 2026-05-06 17:26 | 49.49222 | -1.99158 | 33988 ft | 444 kts | 19° |
| 2026-05-06 17:27 | 49.54965 | -1.95791 | 33990 ft | 445 kts | 19° |
| 2026-05-06 17:27 | 49.60759 | -1.92396 | 33991 ft | 446 kts | 19° |
| 2026-05-06 17:28 | 49.66547 | -1.88977 | 33993 ft | 446 kts | 19° |
| 2026-05-06 17:28 | 49.72340 | -1.85556 | 33990 ft | 446 kts | 19° |
| 2026-05-06 17:29 | 49.78174 | -1.82103 | 33991 ft | 446 kts | 19° |
| 2026-05-06 17:29 | 49.83928 | -1.78680 | 33990 ft | 446 kts | 19° |
| 2026-05-06 17:30 | 49.89675 | -1.75282 | 33536 ft | 436 kts | 19° |
| 2026-05-06 17:30 | 49.92513 | -1.73620 | 32631 ft | 438 kts | 19° |
| 2026-05-06 17:30 | 49.95381 | -1.71929 | 31622 ft | 443 kts | 19° |
| 2026-05-06 17:30 | 49.98276 | -1.70209 | 30577 ft | 448 kts | 19° |
| 2026-05-06 17:31 | 50.01231 | -1.68589 | 29467 ft | 452 kts | 16° |
| 2026-05-06 17:31 | 50.04239 | -1.67124 | 28330 ft | 455 kts | 16° |
| 2026-05-06 17:31 | 50.07269 | -1.65663 | 27184 ft | 457 kts | 16° |
| 2026-05-06 17:31 | 50.10317 | -1.64179 | 26036 ft | 460 kts | 16° |
| 2026-05-06 17:32 | 50.13386 | -1.62693 | 24881 ft | 463 kts | 16° |
| 2026-05-06 17:32 | 50.16443 | -1.61215 | 24214 ft | 456 kts | 16° |
| 2026-05-06 17:32 | 50.19428 | -1.59762 | 23773 ft | 443 kts | 16° |
| 2026-05-06 17:32 | 50.22332 | -1.58346 | 23215 ft | 433 kts | 15° |
| 2026-05-06 17:33 | 50.25190 | -1.56954 | 22464 ft | 427 kts | 15° |
| 2026-05-06 17:33 | 50.28008 | -1.55580 | 21713 ft | 423 kts | 15° |
| 2026-05-06 17:33 | 50.30803 | -1.54219 | 21197 ft | 419 kts | 16° |
| 2026-05-06 17:33 | 50.33583 | -1.52844 | 21017 ft | 418 kts | 16° |
| 2026-05-06 17:34 | 50.36353 | -1.51472 | 20968 ft | 418 kts | 16° |
| 2026-05-06 17:34 | 50.39128 | -1.50124 | 20966 ft | 418 kts | 15° |
| 2026-05-06 17:34 | 50.41901 | -1.48774 | 20974 ft | 418 kts | 15° |
| 2026-05-06 17:34 | 50.44678 | -1.47411 | 20972 ft | 418 kts | 16° |
| 2026-05-06 17:35 | 50.47455 | -1.46040 | 20969 ft | 418 kts | 16° |
| 2026-05-06 17:35 | 50.50114 | -1.44184 | 20967 ft | 420 kts | 27° |
| 2026-05-06 17:35 | 50.52649 | -1.41893 | 20968 ft | 421 kts | 29° |
| 2026-05-06 17:36 | 50.57703 | -1.37257 | 20884 ft | 420 kts | 28° |
| 2026-05-06 17:36 | 50.60231 | -1.34975 | 20456 ft | 417 kts | 28° |
| 2026-05-06 17:36 | 50.62706 | -1.32736 | 19977 ft | 414 kts | 28° |
| 2026-05-06 17:36 | 50.65226 | -1.30453 | 19468 ft | 411 kts | 28° |
| 2026-05-06 17:37 | 50.67700 | -1.28223 | 18971 ft | 408 kts | 28° |
| 2026-05-06 17:37 | 50.70127 | -1.26040 | 18488 ft | 405 kts | 28° |
| 2026-05-06 17:37 | 50.72560 | -1.23831 | 18019 ft | 402 kts | 28° |
| 2026-05-06 17:37 | 50.74978 | -1.21627 | 17540 ft | 399 kts | 28° |
| 2026-05-06 17:38 | 50.77407 | -1.19435 | 17070 ft | 396 kts | 28° |
| 2026-05-06 17:38 | 50.79796 | -1.17290 | 16642 ft | 393 kts | 28° |
| 2026-05-06 17:38 | 50.82130 | -1.15174 | 16234 ft | 391 kts | 28° |
| 2026-05-06 17:38 | 50.84476 | -1.13030 | 15831 ft | 388 kts | 28° |
| 2026-05-06 17:39 | 50.86810 | -1.10912 | 15443 ft | 385 kts | 28° |
| 2026-05-06 17:39 | 50.89131 | -1.08831 | 15061 ft | 382 kts | 28° |
| 2026-05-06 17:39 | 50.91460 | -1.06733 | 14664 ft | 379 kts | 28° |
| 2026-05-06 17:39 | 50.93709 | -1.04671 | 14272 ft | 377 kts | 29° |
| 2026-05-06 17:40 | 50.95998 | -1.02562 | 13869 ft | 374 kts | 28° |
| 2026-05-06 17:40 | 50.98217 | -1.00546 | 13446 ft | 372 kts | 28° |
| 2026-05-06 17:40 | 51.00442 | -0.98382 | 12998 ft | 367 kts | 35° |
| 2026-05-06 17:40 | 51.02219 | -0.95618 | 12569 ft | 359 kts | 46° |
| 2026-05-06 17:41 | 51.03849 | -0.92670 | 12143 ft | 351 kts | 47° |
| 2026-05-06 17:41 | 51.05440 | -0.89786 | 11712 ft | 344 kts | 46° |
| 2026-05-06 17:41 | 51.07007 | -0.86967 | 11289 ft | 337 kts | 46° |
| 2026-05-06 17:41 | 51.08544 | -0.84201 | 10890 ft | 331 kts | 46° |
| 2026-05-06 17:42 | 51.10049 | -0.81477 | 10504 ft | 325 kts | 46° |
| 2026-05-06 17:42 | 51.11533 | -0.78815 | 10138 ft | 319 kts | 46° |
| 2026-05-06 17:42 | 51.12994 | -0.76195 | 9752 ft | 314 kts | 46° |
| 2026-05-06 17:42 | 51.14432 | -0.73616 | 9339 ft | 309 kts | 46° |
| 2026-05-06 17:43 | 51.15843 | -0.71078 | 8967 ft | 303 kts | 46° |
| 2026-05-06 17:43 | 51.17234 | -0.68599 | 8615 ft | 297 kts | 46° |
| 2026-05-06 17:43 | 51.18595 | -0.66164 | 8282 ft | 292 kts | 46° |
| 2026-05-06 17:43 | 51.19933 | -0.63769 | 8007 ft | 285 kts | 46° |
| 2026-05-06 17:44 | 51.21226 | -0.61447 | 7962 ft | 277 kts | 46° |
| 2026-05-06 17:44 | 51.22495 | -0.59140 | 7969 ft | 276 kts | 46° |
| 2026-05-06 17:44 | 51.23764 | -0.56834 | 7983 ft | 277 kts | 46° |
| 2026-05-06 17:44 | 51.25012 | -0.54570 | 7989 ft | 264 kts | 46° |
| 2026-05-06 17:45 | 51.26399 | -0.52605 | 7990 ft | 272 kts | 27° |
| 2026-05-06 17:45 | 51.28184 | -0.51725 | 7997 ft | 269 kts | 2° |
| 2026-05-06 17:45 | 51.30014 | -0.52170 | 7994 ft | 268 kts | 337° |
| 2026-05-06 17:45 | 51.31541 | -0.53848 | 7995 ft | 269 kts | 312° |
| 2026-05-06 17:46 | 51.32465 | -0.56428 | 7996 ft | 270 kts | 288° |
| 2026-05-06 17:46 | 51.32879 | -0.59364 | 8005 ft | 272 kts | 282° |
| 2026-05-06 17:46 | 51.33196 | -0.62346 | 7916 ft | 272 kts | 281° |
| 2026-05-06 17:46 | 51.33503 | -0.65313 | 7671 ft | 268 kts | 281° |
| 2026-05-06 17:47 | 51.33793 | -0.68228 | 7362 ft | 263 kts | 281° |
| 2026-05-06 17:47 | 51.34072 | -0.71106 | 7016 ft | 261 kts | 281° |
| 2026-05-06 17:47 | 51.34362 | -0.73958 | 6672 ft | 258 kts | 281° |
| 2026-05-06 17:47 | 51.34643 | -0.76784 | 6325 ft | 257 kts | 281° |
| 2026-05-06 17:48 | 51.34910 | -0.79593 | 5964 ft | 254 kts | 281° |
| 2026-05-06 17:48 | 51.35171 | -0.82368 | 5600 ft | 251 kts | 282° |
| 2026-05-06 17:48 | 51.35838 | -0.84888 | 5234 ft | 245 kts | 309° |
| 2026-05-06 17:48 | 51.37129 | -0.86577 | 4928 ft | 239 kts | 336° |
| 2026-05-06 17:49 | 51.38721 | -0.87115 | 4657 ft | 233 kts | 357° |
| 2026-05-06 17:49 | 51.40321 | -0.87121 | 4381 ft | 226 kts | 0° |
| 2026-05-06 17:49 | 51.41873 | -0.86984 | 4112 ft | 222 kts | 12° |
| 2026-05-06 17:49 | 51.43230 | -0.85856 | 3928 ft | 223 kts | 39° |
| 2026-05-06 17:50 | 51.44319 | -0.84086 | 3771 ft | 221 kts | 45° |
| 2026-05-06 17:50 | 51.45343 | -0.82314 | 3602 ft | 212 kts | 45° |
| 2026-05-06 17:50 | 51.46321 | -0.80594 | 3420 ft | 204 kts | 45° |
| 2026-05-06 17:50 | 51.47179 | -0.78829 | 3228 ft | 202 kts | 62° |
| 2026-05-06 17:51 | 51.47600 | -0.76683 | 3039 ft | 204 kts | 78° |
| 2026-05-06 17:51 | 51.47717 | -0.74409 | 2962 ft | 205 kts | 88° |
| 2026-05-06 17:51 | 51.47675 | -0.72127 | 2956 ft | 205 kts | 85° |
| 2026-05-06 17:51 | 51.47677 | -0.69843 | 2791 ft | 205 kts | 86° |
| 2026-05-06 17:52 | 51.47683 | -0.67624 | 2536 ft | 192 kts | 86° |
| 2026-05-06 17:52 | 51.47691 | -0.65555 | 2333 ft | 182 kts | 87° |
| 2026-05-06 17:52 | 51.47699 | -0.63528 | 2070 ft | 182 kts | 86° |
| 2026-05-06 17:52 | 51.47705 | -0.61527 | 1795 ft | 175 kts | 85° |
| 2026-05-06 17:53 | 51.47711 | -0.59641 | 1556 ft | 164 kts | 86° |
| 2026-05-06 17:53 | 51.47703 | -0.57843 | 1273 ft | 160 kts | 87° |
| 2026-05-06 17:53 | 51.47717 | -0.56090 | 1120 ft | 159 kts | 85° |
| 2026-05-06 17:53 | 51.47714 | -0.54445 | 899 ft | 135 kts | 86° |
| 2026-05-06 17:54 | 51.47724 | -0.52976 | 671 ft | 130 kts | 84° |
| 2026-05-06 17:54 | 51.47731 | -0.51523 | 498 ft | 132 kts | 85° |
| 2026-05-06 17:54 | 51.47746 | -0.50073 | 300 ft | 130 kts | 85° |
| 2026-05-06 17:54 | 51.47750 | -0.48617 | 156 ft | 129 kts | 86° |
| 2026-05-06 17:55 | 51.47755 | -0.47259 | 90 ft | 109 kts | 90° |
| 2026-05-06 17:55 | 51.47761 | -0.46364 | 93 ft | 51 kts | 89° |
| 2026-05-06 17:55 | 51.47761 | -0.45866 | 89 ft | 32 kts | 88° |
| 2026-05-06 17:55 | 51.47762 | -0.45601 | 90 ft | 15 kts | 95° |
| 2026-05-06 17:56 | 51.47707 | -0.45471 | 91 ft | 11 kts | 168° |
| 2026-05-06 17:56 | 51.47629 | -0.45467 | 91 ft | 13 kts | 192° |
| 2026-05-06 17:56 | 51.47595 | -0.45597 | 93 ft | 15 kts | 270° |
| 2026-05-06 17:56 | 51.47596 | -0.45774 | 95 ft | 17 kts | 268° |
| 2026-05-06 17:57 | 51.47594 | -0.45975 | 91 ft | 19 kts | 270° |
| 2026-05-06 17:57 | 51.47595 | -0.46198 | 93 ft | 21 kts | 269° |
| 2026-05-06 17:57 | 51.47593 | -0.46441 | 92 ft | 23 kts | 269° |
| 2026-05-06 17:57 | 51.47591 | -0.46704 | 92 ft | 24 kts | 269° |
| 2026-05-06 17:58 | 51.47585 | -0.46983 | 95 ft | 26 kts | 265° |
| 2026-05-06 17:58 | 51.47582 | -0.47281 | 93 ft | 28 kts | 269° |
| 2026-05-06 17:58 | 51.47581 | -0.47590 | 94 ft | 29 kts | 269° |
| 2026-05-06 17:58 | 51.47579 | -0.47888 | 93 ft | 27 kts | 269° |
| 2026-05-06 17:59 | 51.47576 | -0.48198 | 92 ft | 29 kts | 269° |
| 2026-05-06 17:59 | 51.47574 | -0.48419 | 92 ft | 13 kts | 257° |
| 2026-05-06 17:59 | 51.47496 | -0.48476 | 92 ft | 15 kts | 180° |
| 2026-05-06 17:59 | 51.47386 | -0.48476 | 91 ft | 17 kts | 178° |
| 2026-05-06 18:00 | 51.47262 | -0.48475 | 91 ft | 18 kts | 178° |
| 2026-05-06 18:00 | 51.47137 | -0.48474 | 91 ft | 18 kts | 180° |
| 2026-05-06 18:00 | 51.47012 | -0.48473 | 91 ft | 18 kts | 178° |
| 2026-05-06 18:00 | 51.46906 | -0.48473 | 92 ft | 6 kts | 189° |
| 2026-05-06 18:01 | 51.46880 | -0.48527 | 92 ft | 7 kts | 260° |
| 2026-05-06 18:01 | 51.46877 | -0.48613 | 92 ft | 8 kts | 269° |
| 2026-05-06 18:01 | 51.46878 | -0.48691 | 92 ft | 5 kts | 284° |
| 2026-05-06 18:01 | 51.46909 | -0.48714 | 91 ft | 2 kts | 356° |
| 2026-05-06 18:02 | 51.46922 | -0.48715 | 93 ft | 1 kts | 359° |
| 2026-05-06 18:02 | 51.46925 | -0.48715 | 93 ft | 0 kts | 359° |